Time;durP1;ratioP1;P1;durP2;ratioP2;P2;SDS_P1;SDS_P2;PMS_P1;PMS_P2;Temp;Humidity;BMP_temperature;BMP_pressure;BME280_temperature;BME280_humidity;BME280_pressure;Samples;Min_cycle;Max_cycle;Signal;HPM_P1;HPM_P2
2023/04/13 00:00:31;;;;;;;1.13;0.60;;;;;;;6.10;77.34;99351.72;4944706;28;20027;-75
2023/04/13 00:02:57;;;;;;;2.22;0.70;;;;;;;5.98;78.66;99379.56;4947835;28;20031;-74
2023/04/13 00:05:23;;;;;;;2.42;0.80;;;;;;;5.90;79.77;99354.00;4950763;28;20034;-74
2023/04/13 00:07:49;;;;;;;1.77;0.70;;;;;;;5.90;79.21;99355.72;4953619;28;20031;-74
2023/04/13 00:10:14;;;;;;;3.17;0.80;;;;;;;5.82;80.22;99353.38;4950159;28;20027;-74
2023/04/13 00:12:41;;;;;;;2.33;0.80;;;;;;;5.86;79.49;99361.88;4952677;28;20023;-75
2023/04/13 00:15:08;;;;;;;2.47;0.82;;;;;;;5.84;79.94;99351.59;4949173;28;20054;-74
2023/04/13 00:17:33;;;;;;;2.35;0.88;;;;;;;5.82;80.86;99337.88;4950605;28;20118;-74
2023/04/13 00:19:59;;;;;;;1.58;0.70;;;;;;;5.83;80.92;99338.75;4951147;28;20090;-75
2023/04/13 00:22:25;;;;;;;1.30;0.70;;;;;;;5.78;81.17;99333.72;4951841;28;20055;-75
2023/04/13 00:24:54;;;;;;;3.47;0.88;;;;;;;5.79;81.47;99350.91;4946827;28;20027;-75
2023/04/13 00:27:20;;;;;;;2.28;0.68;;;;;;;5.79;81.53;99353.47;4946902;28;20027;-75
2023/04/13 00:29:45;;;;;;;1.35;0.70;;;;;;;5.83;82.11;99334.41;4950190;28;20420;-75
2023/04/13 00:32:11;;;;;;;3.72;1.10;;;;;;;5.86;81.21;99326.59;4952417;28;20070;-75
2023/04/13 00:34:37;;;;;;;2.40;0.75;;;;;;;5.85;81.70;99326.66;4950323;28;20482;-75
2023/04/13 00:37:02;;;;;;;1.15;0.60;;;;;;;5.88;81.36;99327.38;4950365;28;20119;-74
2023/04/13 00:39:30;;;;;;;1.58;0.70;;;;;;;5.91;81.20;99337.63;4953317;28;20650;-75
2023/04/13 00:41:57;;;;;;;3.20;1.00;;;;;;;5.96;81.80;99331.47;4952583;28;20035;-75
2023/04/13 00:44:23;;;;;;;1.92;0.70;;;;;;;6.01;81.57;99333.06;4949692;28;20042;-74
2023/04/13 00:46:49;;;;;;;1.10;0.60;;;;;;;6.06;81.84;99325.16;4951527;28;20078;-75
2023/04/13 00:49:16;;;;;;;1.25;0.70;;;;;;;6.07;81.86;99329.44;4953257;28;20119;-74
2023/04/13 00:51:43;;;;;;;2.70;0.80;;;;;;;6.06;82.95;99344.06;4953402;28;20024;-74
2023/04/13 00:54:15;;;;;;;1.67;0.68;;;;;;;6.06;82.53;99340.63;4947134;28;20501;-75
2023/04/13 00:56:44;;;;;;;;;;;;;;;6.10;82.42;99331.91;4951810;28;20031;-74
2023/04/13 00:59:10;;;;;;;2.20;0.80;;;;;;;6.09;83.03;99335.38;4951381;28;19934;-75
2023/04/13 01:01:45;;;;;;;1.88;0.80;;;;;;;6.06;83.42;99335.47;4953159;28;20031;-75
2023/04/13 01:04:17;;;;;;;3.55;1.00;;;;;;;6.06;84.19;99336.31;4947296;28;20102;-75
2023/04/13 01:06:48;;;;;;;1.77;0.65;;;;;;;6.06;83.72;99338.06;4951222;28;20046;-76
2023/04/13 01:09:22;;;;;;;2.47;0.80;;;;;;;6.04;83.62;99326.94;4953020;28;20027;-75
2023/04/13 01:11:58;;;;;;;2.92;0.70;;;;;;;6.04;83.88;99327.78;4950576;28;20058;-75
2023/04/13 01:14:36;;;;;;;1.02;0.60;;;;;;;6.05;83.97;99326.91;4948725;28;20032;-75
2023/04/13 01:17:08;;;;;;;1.80;0.77;;;;;;;6.08;83.98;99328.53;4950355;28;20043;-75
2023/04/13 01:19:58;;;;;;;2.80;0.75;;;;;;;6.10;83.56;99321.59;4949467;28;20042;-75
2023/04/13 01:22:28;;;;;;;2.92;0.90;;;;;;;6.10;83.49;99319.00;4949976;28;20023;-75
2023/04/13 01:25:13;;;;;;;3.17;0.80;;;;;;;6.10;84.48;99337.06;4948354;28;20023;-75
2023/04/13 01:27:45;;;;;;;3.53;0.93;;;;;;;6.15;84.22;99334.34;4951514;28;20102;-74
2023/04/13 01:30:12;;;;;;;2.60;0.70;;;;;;;6.14;83.94;99341.25;4947231;28;20098;-75
2023/04/13 01:32:40;;;;;;;2.85;0.73;;;;;;;6.12;84.12;99340.47;4950147;28;20027;-74
2023/04/13 01:35:09;;;;;;;1.67;0.65;;;;;;;6.14;84.17;99341.25;4950932;28;20078;-74
2023/04/13 01:37:36;;;;;;;2.45;0.88;;;;;;;6.14;84.58;99348.16;4952371;28;20054;-75
2023/04/13 01:40:11;;;;;;;3.55;0.80;;;;;;;6.17;84.06;99342.88;4953248;28;20020;-74
2023/04/13 01:42:37;;;;;;;2.55;0.70;;;;;;;6.25;84.32;99337.47;4953184;28;20035;-75
2023/04/13 01:45:11;;;;;;;3.17;0.70;;;;;;;6.25;84.16;99345.22;4949053;28;20058;-74
2023/04/13 01:47:40;;;;;;;1.35;0.63;;;;;;;6.23;84.22;99340.94;4953409;28;20035;-74
2023/04/13 01:50:14;;;;;;;3.17;0.88;;;;;;;6.26;84.76;99347.75;4953605;28;20061;-74
2023/04/13 01:52:42;;;;;;;3.53;0.73;;;;;;;6.29;84.45;99357.16;4955078;28;20046;-75
2023/04/13 01:55:09;;;;;;;4.22;0.90;;;;;;;6.29;84.32;99364.91;4953828;28;20026;-74
2023/04/13 01:57:38;;;;;;;3.58;0.77;;;;;;;6.26;85.12;99371.00;4953949;28;20023;-75
2023/04/13 02:00:09;;;;;;;2.15;0.85;;;;;;;6.26;85.44;99377.91;4948323;28;20031;-74
2023/04/13 02:02:34;;;;;;;3.83;1.00;;;;;;;6.24;86.08;99377.94;4954273;28;20134;-74
2023/04/13 02:05:00;;;;;;;2.83;0.68;;;;;;;6.20;87.15;99384.13;4950228;28;20559;-74
2023/04/13 02:07:25;;;;;;;1.75;0.70;;;;;;;6.21;86.62;99383.22;4955610;28;20038;-74
2023/04/13 02:09:51;;;;;;;2.45;0.80;;;;;;;6.19;86.70;99377.25;4965877;28;20054;-74
2023/04/13 02:12:16;;;;;;;1.35;0.50;;;;;;;6.18;87.04;99388.47;4955878;28;20054;-74
2023/04/13 02:14:41;;;;;;;4.20;0.75;;;;;;;6.16;87.29;99382.50;4953908;28;20039;-74
2023/04/13 02:17:07;;;;;;;2.83;0.80;;;;;;;6.15;87.62;99402.31;4953514;28;20043;-74
2023/04/13 02:19:33;;;;;;;3.63;0.73;;;;;;;6.13;88.00;99398.09;4952331;28;20028;-74
2023/04/13 02:21:59;;;;;;;2.88;0.82;;;;;;;6.15;87.75;99407.47;4954289;28;20106;-75
2023/04/13 02:24:24;;;;;;;2.45;0.70;;;;;;;6.15;88.41;99407.47;4950426;28;20115;-74
2023/04/13 02:26:49;;;;;;;4.00;1.02;;;;;;;6.14;88.53;99405.81;4952640;28;20146;-74
2023/04/13 02:29:15;;;;;;;4.60;0.80;;;;;;;6.09;89.18;99415.44;4952484;28;20051;-74
2023/04/13 02:31:43;;;;;;;3.30;0.80;;;;;;;6.12;88.93;99415.34;4954327;28;20103;-74
2023/04/13 02:34:09;;;;;;;4.28;1.00;;;;;;;6.08;89.50;99406.00;4950785;28;20435;-74
2023/04/13 02:36:35;;;;;;;3.20;0.98;;;;;;;6.10;89.17;99429.16;4951578;28;20058;-74
2023/04/13 02:39:00;;;;;;;1.08;0.55;;;;;;;6.06;89.36;99424.09;4949936;28;20031;-74
2023/04/13 02:41:25;;;;;;;1.98;0.85;;;;;;;6.05;89.27;99426.72;4947590;28;20503;-74
2023/04/13 02:43:51;;;;;;;2.17;0.80;;;;;;;6.05;89.58;99429.31;4953139;28;20042;-74
2023/04/13 02:46:16;;;;;;;3.28;0.80;;;;;;;6.05;89.11;99440.50;4952767;28;20039;-74
2023/04/13 02:48:42;;;;;;;3.42;0.70;;;;;;;6.04;89.58;99433.66;4952592;28;20027;-74
2023/04/13 02:51:07;;;;;;;4.80;1.33;;;;;;;6.05;89.18;99439.63;4949367;28;20447;-74
2023/04/13 02:53:32;;;;;;;2.90;0.80;;;;;;;6.06;89.45;99449.06;4952218;28;20020;-74
2023/04/13 02:55:57;;;;;;;1.73;0.77;;;;;;;6.12;89.11;99454.06;4953581;28;20035;-75
2023/04/13 02:58:24;;;;;;;4.30;1.05;;;;;;;6.10;89.30;99463.59;4948830;28;20486;-74
2023/04/13 03:00:49;;;;;;;2.42;1.02;;;;;;;6.11;89.30;99464.44;4952108;28;20054;-74
2023/04/13 03:03:15;;;;;;;1.98;0.80;;;;;;;6.11;89.43;99470.44;4953336;28;20036;-74
2023/04/13 03:05:41;;;;;;;3.90;1.00;;;;;;;6.13;89.57;99476.41;4951006;28;20019;-74
2023/04/13 03:08:07;;;;;;;2.38;0.93;;;;;;;6.14;89.83;99483.28;4952880;28;20030;-74
2023/04/13 03:10:33;;;;;;;3.38;1.00;;;;;;;6.14;90.16;99480.69;4955066;28;20066;-74
2023/04/13 03:12:58;;;;;;;2.92;1.00;;;;;;;6.14;89.99;99498.78;4951839;28;20058;-74
2023/04/13 03:15:24;;;;;;;1.80;0.90;;;;;;;6.15;90.12;99504.75;4950307;28;20039;-74
2023/04/13 03:17:49;;;;;;;5.13;1.30;;;;;;;6.15;90.19;99500.44;4951071;28;20081;-74
2023/04/13 03:20:15;;;;;;;3.08;0.95;;;;;;;6.12;89.93;99494.53;4949107;28;21746;-74
2023/04/13 03:22:42;;;;;;;3.65;0.77;;;;;;;6.10;90.46;99502.31;4947831;28;20402;-74
2023/04/13 03:25:08;;;;;;;2.28;1.10;;;;;;;6.08;89.94;99501.50;4952765;28;20030;-74
2023/04/13 03:27:35;;;;;;;1.58;0.73;;;;;;;6.05;90.58;99504.19;4950148;28;20476;-74
2023/04/13 03:30:01;;;;;;;3.08;0.90;;;;;;;6.03;90.29;99505.97;4949160;28;20395;-74
2023/04/13 03:32:26;;;;;;;4.03;0.93;;;;;;;6.03;90.86;99508.53;4951838;28;20038;-74
2023/04/13 03:34:51;;;;;;;3.05;0.90;;;;;;;6.03;90.38;99518.88;4951914;28;20023;-74
2023/04/13 03:37:17;;;;;;;2.33;0.80;;;;;;;6.03;90.05;99526.63;4947337;28;20035;-75
2023/04/13 03:39:42;;;;;;;3.50;1.02;;;;;;;6.03;89.70;99531.78;4951602;28;20035;-75
2023/04/13 03:42:07;;;;;;;4.53;1.25;;;;;;;6.01;89.69;99528.38;4951705;28;20039;-75
2023/04/13 03:44:32;;;;;;;3.10;1.13;;;;;;;5.99;89.54;99535.28;4950742;28;20125;-75
2023/04/13 03:46:58;;;;;;;2.08;0.90;;;;;;;5.98;88.56;99543.97;4951015;28;20038;-74
2023/04/13 03:49:23;;;;;;;1.70;0.80;;;;;;;5.97;88.51;99548.25;4948684;28;20479;-74
2023/04/13 03:51:49;;;;;;;2.92;1.00;;;;;;;5.96;88.31;99550.91;4948273;28;20039;-74
2023/04/13 03:54:15;;;;;;;3.15;1.30;;;;;;;5.90;87.97;99550.16;4951559;28;20410;-74
2023/04/13 03:56:40;;;;;;;4.30;1.20;;;;;;;5.86;88.82;99555.47;4953732;28;20023;-74
2023/04/13 03:59:06;;;;;;;2.78;1.50;;;;;;;5.83;88.68;99561.53;4946995;28;20042;-74
2023/04/13 04:01:31;;;;;;;3.08;1.50;;;;;;;5.79;88.47;99557.38;4945597;28;20390;-74
2023/04/13 04:03:57;;;;;;;4.03;1.40;;;;;;;5.76;88.75;99557.44;4950908;28;20031;-74
2023/04/13 04:06:23;;;;;;;2.92;1.48;;;;;;;5.74;88.91;99561.78;4948900;28;20439;-74
2023/04/13 04:08:48;;;;;;;4.20;1.33;;;;;;;5.74;88.71;99566.94;4945772;28;20039;-74
2023/04/13 04:11:17;;;;;;;4.15;1.60;;;;;;;5.71;88.91;99573.06;4949409;28;20035;-74
2023/04/13 04:13:42;;;;;;;4.93;1.73;;;;;;;5.68;88.93;99573.13;4951202;28;20527;-74
2023/04/13 04:16:10;;;;;;;3.53;1.83;;;;;;;5.70;89.43;99580.81;4946818;28;20111;-74
2023/04/13 04:18:35;;;;;;;3.97;1.85;;;;;;;5.70;89.54;99580.81;4947880;28;20226;-74
2023/04/13 04:21:03;;;;;;;3.83;2.45;;;;;;;5.72;89.34;99589.38;4949109;28;20210;-74
2023/04/13 04:23:29;;;;;;;4.72;2.05;;;;;;;5.71;89.66;99587.66;4951216;28;20031;-74
2023/04/13 04:25:58;;;;;;;6.15;2.70;;;;;;;5.71;89.53;99598.00;4946213;28;20066;-74
2023/04/13 04:28:23;;;;;;;4.20;2.35;;;;;;;5.71;89.66;99604.00;4948836;28;20050;-74
2023/04/13 04:30:53;;;;;;;4.90;2.13;;;;;;;5.71;90.04;99608.31;4949446;28;20039;-74
2023/04/13 04:33:22;;;;;;;4.90;2.40;;;;;;;5.73;90.04;99611.69;4945682;28;20395;-74
2023/04/13 04:35:50;;;;;;;4.55;2.30;;;;;;;5.74;89.56;99605.66;4947414;28;20047;-74
2023/04/13 04:38:16;;;;;;;3.42;2.10;;;;;;;5.71;90.02;99610.91;4948943;28;20110;-74
2023/04/13 04:40:44;;;;;;;4.75;2.20;;;;;;;5.69;89.84;99610.09;4949039;28;20035;-74
2023/04/13 04:43:11;;;;;;;3.83;2.13;;;;;;;5.66;89.61;99611.03;4948501;28;20395;-74
2023/04/13 04:45:37;;;;;;;4.45;2.08;;;;;;;5.68;89.58;99626.44;4949919;28;20498;-74
2023/04/13 04:48:02;;;;;;;5.13;1.88;;;;;;;5.64;89.99;99628.25;4951339;28;20139;-74
2023/04/13 04:50:28;;;;;;;5.10;2.08;;;;;;;5.62;89.32;99633.47;4953480;28;20114;-74
2023/04/13 04:52:53;;;;;;;5.88;2.08;;;;;;;5.59;89.71;99637.84;4950770;28;20057;-74
2023/04/13 04:55:19;;;;;;;5.25;2.00;;;;;;;5.59;89.25;99643.88;4948913;28;20118;-74
2023/04/13 04:57:45;;;;;;;4.63;2.22;;;;;;;5.56;89.63;99638.78;4946136;28;20031;-74
2023/04/13 05:00:16;;;;;;;5.57;2.50;;;;;;;5.56;89.60;99641.34;4946092;28;20043;-74
2023/04/13 05:02:42;;;;;;;;;;;;;;;5.57;88.48;99643.06;4946748;28;20028;-74
2023/04/13 05:05:08;;;;;;;4.22;2.03;;;;;;;5.54;89.09;99642.28;4941903;28;19960;-74
2023/04/13 05:07:34;;;;;;;5.20;2.35;;;;;;;5.53;89.04;99646.59;4946400;28;20031;-74
2023/04/13 05:09:59;;;;;;;5.22;2.13;;;;;;;5.51;89.76;99648.34;4946606;28;20077;-74
2023/04/13 05:12:24;;;;;;;4.90;2.25;;;;;;;5.52;89.41;99650.03;4945223;28;20036;-74
2023/04/13 05:14:50;;;;;;;9.75;2.63;;;;;;;5.53;89.39;99654.31;4953149;28;20178;-75
2023/04/13 05:17:17;;;;;;;6.20;2.90;;;;;;;5.54;89.70;99656.03;4953525;28;20034;-74
2023/04/13 05:19:45;;;;;;;5.22;2.80;;;;;;;5.56;89.50;99662.00;4952936;28;20060;-74
2023/04/13 05:22:12;;;;;;;6.13;2.67;;;;;;;5.59;89.57;99655.91;4949986;28;20094;-74
2023/04/13 05:24:38;;;;;;;5.78;2.75;;;;;;;5.61;89.72;99657.59;4958714;28;20187;-74
2023/04/13 05:27:04;;;;;;;5.88;2.90;;;;;;;5.62;89.23;99654.13;4951519;28;20492;-74
2023/04/13 05:29:30;;;;;;;5.03;2.75;;;;;;;5.66;88.86;99669.50;4954531;28;20036;-74
2023/04/13 05:31:58;;;;;;;6.25;3.20;;;;;;;5.67;89.40;99664.31;4949453;28;20034;-74
2023/04/13 05:34:24;;;;;;;4.95;2.60;;;;;;;5.68;88.97;99670.31;4946892;28;20027;-74
2023/04/13 05:36:49;;;;;;;5.07;2.92;;;;;;;5.69;89.20;99672.88;4947460;28;20466;-74
2023/04/13 05:39:14;;;;;;;6.43;3.15;;;;;;;5.70;89.43;99673.72;4948117;28;20118;-73
2023/04/13 05:41:40;;;;;;;5.20;3.03;;;;;;;5.71;89.54;99685.72;4950019;28;20031;-73
2023/04/13 05:44:05;;;;;;;5.43;2.88;;;;;;;5.72;89.16;99684.84;4948883;28;20034;-74
2023/04/13 05:46:31;;;;;;;5.60;2.67;;;;;;;5.75;89.51;99687.34;4948987;28;20030;-74
2023/04/13 05:48:58;;;;;;;4.40;2.78;;;;;;;5.80;89.51;99688.09;4949757;28;20027;-74
2023/04/13 05:51:23;;;;;;;5.05;2.78;;;;;;;5.83;89.35;99693.16;4948795;28;20109;-74
2023/04/13 05:53:49;;;;;;;5.78;2.65;;;;;;;5.86;88.88;99694.84;4945908;28;20062;-74
2023/04/13 05:56:14;;;;;;;7.15;2.90;;;;;;;5.87;89.06;99697.38;4947593;28;20509;-73
2023/04/13 05:58:39;;;;;;;5.55;2.72;;;;;;;5.91;89.27;99704.16;4947170;28;20019;-74
2023/04/13 06:01:06;;;;;;;5.97;2.90;;;;;;;5.95;88.53;99719.56;4949805;28;20066;-76
2023/04/13 06:03:33;;;;;;;7.35;2.40;;;;;;;5.97;88.81;99713.47;4948477;28;20035;-74
2023/04/13 06:05:59;;;;;;;3.65;1.95;;;;;;;6.01;88.74;99720.28;4946657;28;20030;-74
2023/04/13 06:08:31;;;;;;;3.83;1.80;;;;;;;6.07;88.62;99739.94;4948268;28;20378;-74
2023/04/13 06:10:56;;;;;;;4.00;2.00;;;;;;;6.08;88.91;99737.31;4949183;28;20039;-74
2023/04/13 06:13:22;;;;;;;5.00;1.90;;;;;;;6.12;88.31;99737.25;4950429;28;20031;-74
2023/04/13 06:15:47;;;;;;;4.07;1.75;;;;;;;6.17;87.83;99762.06;4948392;28;20090;-74
2023/04/13 06:18:12;;;;;;;6.47;1.80;;;;;;;6.14;88.21;99757.00;4947711;28;20098;-74
2023/04/13 06:20:38;;;;;;;3.20;1.55;;;;;;;6.15;88.39;99752.66;4947683;28;20046;-74
2023/04/13 06:23:03;;;;;;;3.80;1.63;;;;;;;6.14;88.34;99759.56;4947083;28;20031;-73
2023/04/13 06:25:29;;;;;;;3.33;1.48;;;;;;;6.14;88.13;99769.91;4950210;28;20518;-75
2023/04/13 06:27:55;;;;;;;4.22;1.63;;;;;;;6.14;88.52;99775.06;4950527;28;20039;-75
2023/04/13 06:30:20;;;;;;;4.78;1.40;;;;;;;6.16;88.46;99782.78;4951463;28;20037;-75
2023/04/13 06:32:46;;;;;;;3.72;1.42;;;;;;;6.17;88.97;99777.56;4949075;28;20106;-74
2023/04/13 06:35:11;;;;;;;2.25;1.33;;;;;;;6.20;88.90;99777.47;4949050;28;20062;-75
2023/04/13 06:37:38;;;;;;;3.65;1.75;;;;;;;6.25;88.68;99790.28;4947424;28;20467;-75
2023/04/13 06:40:14;;;;;;;3.33;1.40;;;;;;;6.30;88.28;99777.28;4946608;28;20027;-74
2023/04/13 06:42:42;;;;;;;3.28;1.70;;;;;;;6.37;88.65;99790.00;4944152;28;20031;-74
2023/04/13 06:45:09;;;;;;;4.07;1.73;;;;;;;6.41;88.32;99785.59;4939348;28;20069;-74
2023/04/13 06:47:36;;;;;;;4.50;1.73;;;;;;;6.44;87.99;99795.84;4943071;28;20142;-75
2023/04/13 06:50:05;;;;;;;3.85;1.98;;;;;;;6.43;88.29;99793.28;4942120;28;20042;-74
2023/04/13 06:52:32;;;;;;;4.22;1.90;;;;;;;6.45;87.85;99801.84;4941034;28;20102;-74
2023/04/13 06:54:58;;;;;;;4.25;1.80;;;;;;;6.46;88.90;99808.72;4942088;28;20492;-74
2023/04/13 06:57:23;;;;;;;3.65;1.80;;;;;;;6.49;88.69;99808.63;4942271;28;20034;-74
2023/04/13 06:59:48;;;;;;;2.53;1.77;;;;;;;6.52;87.96;99809.41;4941077;28;20045;-75
2023/04/13 07:02:14;;;;;;;6.30;2.05;;;;;;;6.53;87.90;99811.09;4940754;28;20114;-75
2023/04/13 07:04:39;;;;;;;5.35;2.08;;;;;;;6.55;87.95;99807.63;4941964;28;20023;-75
2023/04/13 07:07:04;;;;;;;6.45;2.58;;;;;;;6.58;87.38;99808.38;4940461;28;20050;-74
2023/04/13 07:09:30;;;;;;;6.68;2.28;;;;;;;6.62;87.93;99824.69;4940682;28;20035;-75
2023/04/13 07:11:56;;;;;;;4.40;2.15;;;;;;;6.64;87.62;99817.75;4941265;28;20083;-74
2023/04/13 07:14:21;;;;;;;5.60;2.40;;;;;;;6.67;87.73;99835.72;4939637;28;20031;-74
2023/04/13 07:16:47;;;;;;;5.00;2.63;;;;;;;6.69;87.53;99836.53;4943079;28;20368;-73
2023/04/13 07:19:12;;;;;;;6.97;2.50;;;;;;;6.69;87.57;99833.97;4943082;28;20027;-74
2023/04/13 07:21:38;;;;;;;5.38;2.38;;;;;;;6.67;87.53;99839.19;4943257;28;20086;-74
2023/04/13 07:24:03;;;;;;;4.85;2.15;;;;;;;6.66;87.25;99840.06;4943481;28;20027;-74
2023/04/13 07:26:29;;;;;;;6.47;2.30;;;;;;;6.69;86.96;99857.22;4941004;28;20654;-74
2023/04/13 07:28:54;;;;;;;6.07;2.40;;;;;;;6.71;87.74;99855.44;4945502;28;20078;-74
2023/04/13 07:31:20;;;;;;;5.35;2.40;;;;;;;6.77;86.91;99857.88;4948830;28;20027;-75
2023/04/13 07:33:46;;;;;;;4.82;2.30;;;;;;;6.81;86.80;99858.66;4943033;28;20034;-74
2023/04/13 07:36:11;;;;;;;4.45;2.13;;;;;;;6.91;86.90;99861.84;4943454;28;20159;-74
2023/04/13 07:38:37;;;;;;;6.80;2.28;;;;;;;6.96;86.84;99865.16;4946832;28;20027;-75
2023/04/13 07:41:02;;;;;;;5.97;1.98;;;;;;;7.05;86.03;99870.06;4944112;28;20394;-75
2023/04/13 07:43:27;;;;;;;4.90;2.00;;;;;;;7.10;86.10;99872.53;4944534;28;20069;-75
2023/04/13 07:45:53;;;;;;;5.47;2.10;;;;;;;7.18;85.60;99874.91;4947320;28;20064;-75
2023/04/13 07:48:18;;;;;;;6.43;2.10;;;;;;;7.24;85.92;99882.50;4947285;28;20027;-74
2023/04/13 07:50:43;;;;;;;6.35;2.50;;;;;;;7.33;85.25;99882.28;4947685;28;20049;-74
2023/04/13 07:53:09;;;;;;;5.57;2.05;;;;;;;7.38;85.29;99885.56;4946053;28;20030;-74
2023/04/13 07:55:36;;;;;;;5.82;2.20;;;;;;;7.46;85.03;99887.09;4944170;28;20414;-74
2023/04/13 07:58:01;;;;;;;7.35;2.70;;;;;;;7.53;85.23;99886.00;4946973;28;20039;-74
2023/04/13 08:00:26;;;;;;;6.10;2.53;;;;;;;7.61;83.90;99889.25;4948701;28;20038;-74
2023/04/13 08:02:53;;;;;;;7.13;2.50;;;;;;;7.67;83.91;99894.25;4945560;28;20348;-74
2023/04/13 08:05:18;;;;;;;7.00;2.60;;;;;;;7.72;83.47;99897.53;4945988;28;20049;-75
2023/04/13 08:07:45;;;;;;;8.25;2.70;;;;;;;7.79;82.99;99898.19;4946016;28;20035;-75
2023/04/13 08:10:11;;;;;;;7.28;2.70;;;;;;;7.86;83.16;99919.56;4948174;28;20031;-75
2023/04/13 08:12:36;;;;;;;9.07;2.53;;;;;;;7.90;82.65;99916.88;4942952;28;20030;-75
2023/04/13 08:15:02;;;;;;;6.88;2.40;;;;;;;7.93;82.99;99913.34;4949203;28;20067;-74
2023/04/13 08:17:27;;;;;;;5.40;2.17;;;;;;;7.99;82.63;99922.66;4945142;28;20030;-73
2023/04/13 08:19:52;;;;;;;8.65;2.72;;;;;;;8.03;82.66;99927.69;4945354;28;20046;-74
2023/04/13 08:22:17;;;;;;;8.95;2.53;;;;;;;8.09;82.08;99933.59;4944757;28;20530;-74
2023/04/13 08:24:43;;;;;;;6.90;2.60;;;;;;;8.12;81.67;99930.91;4947972;28;20038;-75
2023/04/13 08:27:08;;;;;;;9.50;2.75;;;;;;;8.18;81.71;99930.75;4943331;28;20649;-74
2023/04/13 08:29:34;;;;;;;6.43;2.15;;;;;;;8.22;81.67;99947.88;4942439;28;20051;-75
2023/04/13 08:32:00;;;;;;;7.55;2.70;;;;;;;8.27;80.71;99946.00;4945393;28;20351;-75
2023/04/13 08:34:26;;;;;;;7.78;2.38;;;;;;;8.32;80.30;99962.25;4942202;28;20483;-74
2023/04/13 08:36:51;;;;;;;9.35;2.50;;;;;;;8.30;79.47;99956.28;4945876;28;20061;-75
2023/04/13 08:39:16;;;;;;;8.05;2.00;;;;;;;8.31;79.63;99970.06;4944124;28;20082;-74
2023/04/13 08:41:46;;;;;;;6.25;2.00;;;;;;;8.35;79.23;99971.66;4946979;28;20479;-75
2023/04/13 08:44:13;;;;;;;9.07;2.03;;;;;;;8.39;78.56;99967.22;4943709;28;20038;-75
2023/04/13 08:46:40;;;;;;;7.72;2.10;;;;;;;8.42;78.84;99969.75;4942475;28;20114;-75
2023/04/13 08:49:08;;;;;;;9.48;2.28;;;;;;;8.49;78.25;99981.66;4941209;28;20090;-75
2023/04/13 08:51:33;;;;;;;6.07;1.95;;;;;;;8.59;77.73;99983.06;4943361;28;20490;-74
2023/04/13 08:53:59;;;;;;;7.47;2.40;;;;;;;8.68;77.33;99991.47;4941848;28;20043;-74
2023/04/13 08:56:25;;;;;;;7.47;2.10;;;;;;;8.74;76.44;99992.09;4942693;28;20054;-75
2023/04/13 08:58:55;;;;;;;9.02;2.10;;;;;;;8.79;74.97;100010.09;4942738;28;20375;-74
2023/04/13 09:01:21;;;;;;;9.10;1.88;;;;;;;8.83;74.81;100011.72;4937243;28;20042;-74
2023/04/13 09:03:53;;;;;;;7.50;1.92;;;;;;;8.89;73.85;100014.09;4936474;28;20122;-75
2023/04/13 09:06:24;;;;;;;7.68;1.90;;;;;;;8.96;73.38;100019.97;4937484;28;20035;-75
2023/04/13 09:08:52;;;;;;;8.05;1.75;;;;;;;9.01;72.82;100025.00;4938491;28;20062;-75
2023/04/13 09:11:17;;;;;;;9.35;2.20;;;;;;;9.04;73.38;100019.72;4940964;28;20397;-75
2023/04/13 09:13:50;;;;;;;9.35;1.95;;;;;;;9.09;73.29;100028.16;4938394;28;20035;-75
2023/04/13 09:16:15;;;;;;;10.75;2.55;;;;;;;9.13;71.90;100034.97;4939126;28;20039;-75
2023/04/13 09:18:54;;;;;;;8.10;1.70;;;;;;;9.23;73.23;100041.53;4935742;28;20054;-75
2023/04/13 09:21:38;;;;;;;7.82;1.95;;;;;;;9.31;71.62;100045.63;4934996;28;20091;-75
2023/04/13 09:24:04;;;;;;;7.78;1.60;;;;;;;9.36;70.51;100048.94;4941094;28;20126;-75
2023/04/13 09:26:42;;;;;;;7.90;1.80;;;;;;;9.44;70.94;100061.66;4940552;28;20977;-75
2023/04/13 09:29:13;;;;;;;6.32;1.60;;;;;;;9.47;70.62;100056.34;4938425;28;20066;-75
2023/04/13 09:31:39;;;;;;;8.43;1.42;;;;;;;9.48;69.60;100053.69;4938764;28;20046;-75
2023/04/13 09:34:07;;;;;;;5.07;1.40;;;;;;;9.52;69.14;100067.41;4936997;28;20043;-75
2023/04/13 09:36:32;;;;;;;5.20;1.38;;;;;;;9.48;68.84;100064.09;4941509;28;20954;-75
2023/04/13 09:38:58;;;;;;;9.10;1.70;;;;;;;9.39;68.31;100059.22;4943214;28;20086;-75
2023/04/13 09:41:39;;;;;;;8.20;1.58;;;;;;;9.35;69.14;100075.78;4943580;28;21264;-75
2023/04/13 09:44:16;;;;;;;8.65;1.80;;;;;;;9.31;69.26;100090.59;4942859;28;20042;-75
2023/04/13 09:46:43;;;;;;;9.27;1.67;;;;;;;9.31;68.72;100089.75;4942659;28;20031;-76
2023/04/13 09:49:08;;;;;;;5.80;1.42;;;;;;;9.26;69.11;100100.28;4943164;28;20113;-75
2023/04/13 09:51:38;;;;;;;7.00;1.80;;;;;;;9.25;69.31;100104.63;4941476;28;20039;-75
2023/04/13 09:54:07;;;;;;;9.32;1.60;;;;;;;9.32;70.03;100104.44;4942059;28;20038;-75
2023/04/13 09:56:43;;;;;;;8.10;1.70;;;;;;;9.41;69.64;100117.09;4943287;28;20442;-75
2023/04/13 09:59:09;;;;;;;7.00;1.67;;;;;;;9.45;68.45;100123.06;4941348;28;20034;-75
2023/04/13 10:01:36;;;;;;;6.30;1.73;;;;;;;9.42;67.83;100118.81;4947637;28;20027;-75
2023/04/13 10:04:05;;;;;;;6.07;1.40;;;;;;;9.44;67.80;100122.19;4948205;28;20034;-75
2023/04/13 10:06:32;;;;;;;9.88;1.70;;;;;;;9.47;67.42;100126.47;4945274;28;20494;-75
2023/04/13 10:08:57;;;;;;;8.80;1.60;;;;;;;9.50;67.41;100131.53;4948709;28;20042;-75
2023/04/13 10:11:23;;;;;;;6.30;1.40;;;;;;;9.53;67.90;100124.50;4949952;28;20031;-75
2023/04/13 10:13:54;;;;;;;5.70;1.30;;;;;;;9.61;67.27;100128.59;4948745;28;20031;-75
2023/04/13 10:16:54;;;;;;;6.45;1.88;;;;;;;9.72;68.58;100131.69;4946146;28;20499;-75
2023/04/13 10:19:23;;;;;;;5.05;1.45;;;;;;;9.84;66.84;100136.47;4947964;28;20118;-75
2023/04/13 10:21:51;;;;;;;7.65;1.50;;;;;;;9.98;66.23;100138.59;4947908;28;20043;-75
2023/04/13 10:24:18;;;;;;;5.25;1.77;;;;;;;10.09;66.50;100150.34;4947859;28;20070;-75
2023/04/13 10:26:43;;;;;;;5.20;1.35;;;;;;;10.16;67.44;100157.88;4945796;28;20034;-75
2023/04/13 10:29:10;;;;;;;7.40;1.80;;;;;;;10.19;67.06;100169.91;4946878;28;20129;-75
2023/04/13 10:31:47;;;;;;;7.43;2.00;;;;;;;10.16;66.82;100176.06;4933166;28;20414;-75
2023/04/13 10:34:42;;;;;;;7.47;1.80;;;;;;;10.15;67.31;100174.38;4941084;28;20185;-75
2023/04/13 10:37:22;;;;;;;7.72;1.80;;;;;;;10.17;67.08;100182.97;4938431;28;20386;-75
2023/04/13 10:39:47;;;;;;;10.57;2.10;;;;;;;10.25;66.67;100187.91;4945382;28;20236;-75
2023/04/13 10:42:13;;;;;;;7.93;1.75;;;;;;;10.26;64.90;100183.53;4943730;28;20475;-75
2023/04/13 10:44:49;;;;;;;9.55;2.30;;;;;;;10.20;65.82;100192.41;4948871;28;20562;-75
2023/04/13 10:47:17;;;;;;;8.45;2.42;;;;;;;10.12;65.18;100192.66;4944925;28;20039;-75
2023/04/13 10:49:45;;;;;;;9.15;2.20;;;;;;;10.04;65.35;100205.09;4946724;28;20031;-75
2023/04/13 10:52:11;;;;;;;8.05;2.25;;;;;;;9.91;65.64;100201.19;4948564;28;20170;-75
2023/04/13 10:54:38;;;;;;;6.90;2.35;;;;;;;9.78;66.45;100193.81;4942741;28;20534;-75
2023/04/13 10:57:05;;;;;;;7.95;2.33;;;;;;;9.76;66.32;100199.97;4941199;28;20652;-75
2023/04/13 10:59:52;;;;;;;8.45;2.28;;;;;;;9.84;66.51;100204.00;4941058;28;20049;-75
2023/04/13 11:02:18;;;;;;;6.95;2.10;;;;;;;9.90;65.56;100209.91;4941312;28;20550;-75
2023/04/13 11:04:46;;;;;;;8.25;2.67;;;;;;;9.98;65.53;100205.28;4939678;28;20062;-74
2023/04/13 11:07:13;;;;;;;9.00;2.33;;;;;;;10.06;65.85;100213.69;4943815;28;20118;-75
2023/04/13 11:09:42;;;;;;;6.35;2.10;;;;;;;10.12;65.63;100218.66;4946289;28;20039;-75
2023/04/13 11:12:11;;;;;;;10.00;2.72;;;;;;;10.14;64.93;100226.44;4942621;28;20040;-75
2023/04/13 11:14:37;;;;;;;8.35;2.20;;;;;;;10.11;64.46;100222.16;4943878;28;20554;-75
2023/04/13 11:17:05;;;;;;;6.57;1.80;;;;;;;10.08;64.39;100221.44;4941364;28;20097;-75
2023/04/13 11:19:31;;;;;;;7.80;1.60;;;;;;;10.06;64.22;100224.09;4944593;28;20058;-75
2023/04/13 11:21:56;;;;;;;6.80;1.80;;;;;;;10.13;64.18;100225.56;4944464;28;20506;-75
2023/04/13 11:24:32;;;;;;;5.38;1.60;;;;;;;10.31;64.14;100228.44;4944443;28;20487;-75
2023/04/13 11:26:58;;;;;;;4.63;1.33;;;;;;;10.54;63.92;100232.84;4947756;28;20031;-74
2023/04/13 11:29:23;;;;;;;6.35;1.50;;;;;;;10.70;64.03;100232.31;4941909;28;20054;-75
2023/04/13 11:31:48;;;;;;;6.30;1.38;;;;;;;10.73;61.87;100240.00;4939341;28;20035;-74
2023/04/13 11:34:24;;;;;;;5.60;1.30;;;;;;;10.88;62.38;100236.84;4942952;28;20443;-75
2023/04/13 11:36:59;;;;;;;6.55;1.42;;;;;;;11.02;63.31;100241.53;4926640;28;20042;-75
2023/04/13 11:39:26;;;;;;;3.70;1.02;;;;;;;11.12;61.13;100222.97;4938923;28;20027;-75